createdAt,value
2018-12-16T00:02:30.093Z,43.73
2018-12-16T00:05:01.569Z,22.40
2018-12-16T00:07:32.621Z,20.70
2018-12-16T00:10:03.622Z,16.32
2018-12-16T00:12:34.488Z,14.83
2018-12-16T00:15:05.606Z,26.30
2018-12-16T00:17:36.630Z,16.27
2018-12-16T00:20:07.811Z,19.05
2018-12-16T00:22:39.369Z,15.20
2018-12-16T00:25:10.523Z,14.25
2018-12-16T00:27:41.361Z,20.48
2018-12-16T00:30:12.429Z,17.45
2018-12-16T00:32:43.461Z,22.42
2018-12-16T00:35:14.291Z,19.12
2018-12-16T00:37:45.342Z,17.77
2018-12-16T00:40:17.020Z,15.75
2018-12-16T00:42:47.955Z,17.55
2018-12-16T00:45:19.883Z,16.62
2018-12-16T00:47:50.722Z,16.85
2018-12-16T00:50:21.517Z,15.43
2018-12-16T00:52:52.377Z,16.05
2018-12-16T00:55:23.277Z,16.45
2018-12-16T00:57:54.204Z,16.45
2018-12-16T01:00:25.111Z,16.70
2018-12-16T01:02:55.960Z,16.80
2018-12-16T01:05:26.693Z,17.27
2018-12-16T01:07:57.545Z,17.25
2018-12-16T01:10:28.504Z,17.75
2018-12-16T01:12:59.131Z,16.57
2018-12-16T01:15:29.683Z,16.30
2018-12-16T01:18:00.584Z,18.48
2018-12-16T01:20:31.384Z,18.85
2018-12-16T01:23:02.141Z,18.40
2018-12-16T01:25:33.157Z,18.05
2018-12-16T01:28:03.841Z,16.52
2018-12-16T01:30:34.684Z,17.07
2018-12-16T01:33:05.530Z,17.42
2018-12-16T01:35:36.442Z,17.32
2018-12-16T01:38:07.574Z,18.15
2018-12-16T01:40:38.438Z,17.98
2018-12-16T01:43:09.620Z,20.23
2018-12-16T01:45:40.338Z,19.02
2018-12-16T01:48:11.275Z,20.10
2018-12-16T01:50:42.149Z,22.13
2018-12-16T01:53:13.015Z,20.75
2018-12-16T01:55:43.957Z,22.07
2018-12-16T01:58:14.601Z,20.55
2018-12-16T02:00:45.364Z,18.52
2018-12-16T02:03:16.241Z,18.02
2018-12-16T02:05:47.321Z,18.37
2018-12-16T02:08:18.232Z,30.00
2018-12-16T02:10:48.977Z,29.45
2018-12-16T02:13:19.896Z,24.18
2018-12-16T02:15:50.502Z,19.00
2018-12-16T02:18:21.107Z,20.48
2018-12-16T02:20:51.925Z,21.68
2018-12-16T02:23:22.569Z,20.15
2018-12-16T02:25:53.470Z,18.98
2018-12-16T02:28:24.485Z,19.35
2018-12-16T02:30:55.243Z,18.48
2018-12-16T02:33:25.977Z,18.65
2018-12-16T02:35:56.685Z,19.05
2018-12-16T02:38:27.863Z,18.57
2018-12-16T02:40:58.649Z,18.90
2018-12-16T02:43:29.508Z,19.35
2018-12-16T02:46:00.410Z,19.77
2018-12-16T02:48:31.305Z,19.60
2018-12-16T02:51:02.112Z,19.17
2018-12-16T02:53:32.889Z,18.12
2018-12-16T02:56:06.854Z,18.65
2018-12-16T02:58:37.713Z,20.02
2018-12-16T03:01:08.319Z,19.85
2018-12-16T03:03:39.006Z,19.17
2018-12-16T03:06:10.029Z,20.40
2018-12-16T03:08:40.733Z,19.57
2018-12-16T03:11:11.689Z,18.12
2018-12-16T03:13:43.046Z,21.23
2018-12-16T03:16:13.925Z,19.92
2018-12-16T03:18:46.152Z,18.98
2018-12-16T03:21:16.913Z,22.30
2018-12-16T03:23:47.711Z,20.43
2018-12-16T03:26:18.488Z,22.70
2018-12-16T03:28:49.420Z,26.57
2018-12-16T03:31:20.413Z,26.30
2018-12-16T03:33:51.336Z,24.75
2018-12-16T03:36:22.318Z,22.50
2018-12-16T03:38:53.265Z,23.70
2018-12-16T03:41:24.088Z,21.27
2018-12-16T03:43:54.728Z,19.45
2018-12-16T03:46:25.819Z,18.45
2018-12-16T03:48:56.897Z,18.62
2018-12-16T03:51:27.581Z,17.10
2018-12-16T03:53:58.390Z,17.92
2018-12-16T03:56:28.989Z,18.70
2018-12-16T03:59:17.720Z,18.07
2018-12-16T04:01:54.183Z,17.82
2018-12-16T04:04:25.474Z,18.23
2018-12-16T04:06:56.470Z,19.35
2018-12-16T04:09:27.261Z,19.92
2018-12-16T04:11:58.058Z,16.70
2018-12-16T04:14:29.485Z,16.48
2018-12-16T04:17:00.292Z,15.98
2018-12-16T04:19:31.403Z,15.83
2018-12-16T04:22:02.424Z,16.12
2018-12-16T04:24:33.017Z,18.32
2018-12-16T04:27:03.895Z,14.65
2018-12-16T04:29:34.690Z,16.17
2018-12-16T04:32:05.391Z,19.07
2018-12-16T04:34:36.232Z,18.07
2018-12-16T04:37:07.039Z,18.85
2018-12-16T04:39:37.984Z,16.80
2018-12-16T04:42:09.787Z,20.37
2018-12-16T04:44:40.601Z,17.17
2018-12-16T04:47:11.430Z,28.52
2018-12-16T04:49:42.253Z,17.35
2018-12-16T04:52:13.314Z,16.00
2018-12-16T04:54:44.187Z,17.62
2018-12-16T04:57:14.985Z,17.73
2018-12-16T04:59:45.899Z,19.37
2018-12-16T05:02:16.789Z,18.27
2018-12-16T05:04:47.549Z,19.77
2018-12-16T05:07:18.789Z,19.57
2018-12-16T05:09:49.567Z,19.20
2018-12-16T05:12:20.179Z,20.35
2018-12-16T05:14:51.123Z,17.77
2018-12-16T05:17:22.178Z,17.45
2018-12-16T05:19:52.870Z,16.95
2018-12-16T05:22:24.089Z,17.77
2018-12-16T05:24:55.203Z,18.32
2018-12-16T05:27:26.080Z,18.02
2018-12-16T05:29:57.043Z,15.93
2018-12-16T05:32:28.042Z,19.95
2018-12-16T05:34:59.099Z,17.75
2018-12-16T05:37:29.872Z,17.10
2018-12-16T05:40:01.399Z,18.05
2018-12-16T05:42:32.189Z,23.35
2018-12-16T05:45:02.899Z,20.05
2018-12-16T05:47:33.959Z,18.45
2018-12-16T05:50:05.631Z,18.92
2018-12-16T05:52:36.486Z,25.25
2018-12-16T05:55:07.587Z,20.43
2018-12-16T05:57:38.401Z,19.85
2018-12-16T06:00:09.467Z,21.12
2018-12-16T06:02:40.090Z,19.00
2018-12-16T06:05:10.921Z,20.00
2018-12-16T06:07:41.516Z,22.20
2018-12-16T06:10:12.387Z,21.05
2018-12-16T06:12:43.648Z,19.12
2018-12-16T06:15:14.638Z,18.73
2018-12-16T06:17:46.225Z,23.00
2018-12-16T06:20:17.906Z,18.52
2018-12-16T06:22:48.806Z,17.48
2018-12-16T06:25:19.397Z,17.77
2018-12-16T06:27:50.084Z,18.60
2018-12-16T06:30:22.475Z,18.32
2018-12-16T06:32:53.464Z,17.15
2018-12-16T06:35:24.359Z,18.65
2018-12-16T06:37:55.302Z,24.50
2018-12-16T06:40:26.107Z,43.65
2018-12-16T06:43:00.068Z,41.73
2018-12-16T06:45:30.850Z,36.33
2018-12-16T06:48:01.729Z,27.98
2018-12-16T06:50:32.579Z,21.93
2018-12-16T06:53:03.722Z,20.23
2018-12-16T06:55:34.560Z,19.37
2018-12-16T06:58:05.409Z,18.75
2018-12-16T07:00:36.470Z,19.60
2018-12-16T07:03:07.468Z,22.25
2018-12-16T07:05:38.356Z,23.35
2018-12-16T07:08:09.318Z,21.48
2018-12-16T07:10:40.901Z,18.62
2018-12-16T07:13:11.910Z,18.50
2018-12-16T07:15:42.774Z,17.10
2018-12-16T07:18:13.531Z,16.97
2018-12-16T07:20:44.352Z,15.18
2018-12-16T07:23:14.999Z,13.13
2018-12-16T07:25:46.500Z,13.05
2018-12-16T07:28:17.172Z,12.45
2018-12-16T07:30:48.110Z,12.43
2018-12-16T07:33:18.887Z,12.58
2018-12-16T07:35:55.081Z,11.60
2018-12-16T07:38:27.954Z,12.57
2018-12-16T07:40:58.963Z,13.30
2018-12-16T07:43:30.568Z,14.40
2018-12-16T07:46:01.478Z,13.90
2018-12-16T07:48:32.838Z,14.87
2018-12-16T07:51:03.769Z,14.50
2018-12-16T07:53:34.665Z,12.57
2018-12-16T07:56:05.633Z,13.57
2018-12-16T07:58:36.890Z,13.80
2018-12-16T08:01:07.739Z,13.23
2018-12-16T08:03:38.896Z,12.60
2018-12-16T08:06:09.952Z,12.53
2018-12-16T08:08:42.358Z,12.23
2018-12-16T08:11:13.664Z,10.97
2018-12-16T08:13:44.671Z,12.13
2018-12-16T08:16:15.817Z,12.53
2018-12-16T08:18:46.588Z,12.47
2018-12-16T08:21:19.988Z,12.50
2018-12-16T08:23:51.033Z,12.77
2018-12-16T08:26:22.463Z,11.87
2018-12-16T08:28:53.557Z,12.47
2018-12-16T08:31:24.698Z,12.00
2018-12-16T08:33:55.777Z,13.73
2018-12-16T08:36:28.480Z,14.60
2018-12-16T08:39:00.065Z,15.10
2018-12-16T08:41:31.343Z,12.90
2018-12-16T08:44:02.467Z,13.63
2018-12-16T08:46:34.946Z,14.17
2018-12-16T08:49:06.138Z,13.53
2018-12-16T08:51:37.026Z,12.67
2018-12-16T08:54:08.761Z,13.07
2018-12-16T08:56:40.298Z,12.83
2018-12-16T08:59:12.341Z,12.97
2018-12-16T09:01:43.779Z,13.00
2018-12-16T09:04:15.113Z,12.73
2018-12-16T09:06:47.595Z,12.73
2018-12-16T09:09:19.558Z,13.53
2018-12-16T09:11:51.493Z,14.67
2018-12-16T09:14:24.577Z,13.07
2018-12-16T09:16:55.650Z,14.30
2018-12-16T09:19:27.482Z,14.13
2018-12-16T09:21:59.841Z,13.23
2018-12-16T09:24:37.002Z,12.73
2018-12-16T09:27:04.291Z,13.13
2018-12-16T09:29:36.338Z,12.87
2018-12-16T09:32:08.323Z,13.63
2018-12-16T09:34:40.034Z,13.07
2018-12-16T09:37:11.819Z,13.63
2018-12-16T09:39:42.723Z,12.90
2018-12-16T09:42:14.057Z,12.40
2018-12-16T09:44:45.466Z,13.70
2018-12-16T09:47:18.030Z,12.80
2018-12-16T09:49:50.089Z,12.77
2018-12-16T09:52:21.376Z,13.17
2018-12-16T09:54:53.036Z,12.43
2018-12-16T09:57:24.962Z,12.10
2018-12-16T09:59:56.768Z,12.90
2018-12-16T10:02:28.496Z,13.30
2018-12-16T10:04:59.714Z,11.30
2018-12-16T10:07:30.872Z,12.07
2018-12-16T10:10:03.421Z,11.57
2018-12-16T10:12:34.250Z,11.97
2018-12-16T10:15:05.849Z,12.40
2018-12-16T10:17:37.201Z,11.97
2018-12-16T10:20:10.235Z,12.63
2018-12-16T10:22:41.339Z,12.80
2018-12-16T10:25:12.733Z,12.47
2018-12-16T10:27:43.938Z,12.30
2018-12-16T10:30:15.081Z,13.67
2018-12-16T10:32:46.576Z,15.27
2018-12-16T10:35:17.672Z,10.87
2018-12-16T10:37:49.614Z,13.10
2018-12-16T10:40:20.455Z,12.30
2018-12-16T10:42:51.676Z,11.27
2018-12-16T10:45:23.590Z,12.20
2018-12-16T10:47:54.540Z,13.90
2018-12-16T10:50:25.681Z,12.67
2018-12-16T10:52:56.691Z,11.70
2018-12-16T10:55:27.688Z,11.17
2018-12-16T10:57:58.510Z,13.77
2018-12-16T11:00:34.460Z,12.47
2018-12-16T11:03:05.821Z,12.20
2018-12-16T11:05:37.096Z,12.30
2018-12-16T11:08:08.380Z,12.70
2018-12-16T11:10:39.406Z,12.03
2018-12-16T11:13:10.716Z,12.90
2018-12-16T11:15:41.633Z,13.70
2018-12-16T11:18:13.278Z,14.00
2018-12-16T11:20:44.422Z,14.70
2018-12-16T11:23:15.469Z,15.10
2018-12-16T11:25:52.341Z,15.00
2018-12-16T11:28:24.353Z,14.43
2018-12-16T11:30:55.675Z,14.53
2018-12-16T11:33:26.967Z,15.47
2018-12-16T11:35:58.956Z,11.97
2018-12-16T11:38:29.853Z,12.53
2018-12-16T11:41:00.880Z,22.57
2018-12-16T11:43:32.202Z,13.23
2018-12-16T11:46:03.505Z,11.30
2018-12-16T11:48:34.382Z,10.93
2018-12-16T11:51:06.062Z,12.50
2018-12-16T11:53:37.342Z,10.87
2018-12-16T11:56:08.264Z,10.57
2018-12-16T11:58:39.920Z,9.50
2018-12-16T12:01:10.571Z,18.43
2018-12-16T12:03:42.110Z,13.47
2018-12-16T12:06:13.557Z,10.50
2018-12-16T12:08:45.576Z,10.63
2018-12-16T12:11:16.546Z,10.87
2018-12-16T12:13:47.364Z,9.97
2018-12-16T12:16:18.603Z,9.17
2018-12-16T12:19:01.711Z,8.40
2018-12-16T12:21:32.520Z,9.33
2018-12-16T12:24:03.325Z,9.20
2018-12-16T12:26:34.717Z,9.80
2018-12-16T12:29:05.798Z,7.70
2018-12-16T12:31:36.713Z,8.80
2018-12-16T12:34:07.591Z,9.63
2018-12-16T12:36:38.521Z,9.03
2018-12-16T12:39:09.390Z,9.10
2018-12-16T12:41:40.423Z,9.77
2018-12-16T12:44:11.623Z,10.30
2018-12-16T12:46:42.655Z,9.50
2018-12-16T12:49:14.739Z,9.97
2018-12-16T12:51:45.698Z,10.80
2018-12-16T12:54:17.714Z,9.50
2018-12-16T12:56:48.603Z,9.70
2018-12-16T12:59:20.292Z,9.60
2018-12-16T13:01:51.355Z,10.47
2018-12-16T13:04:22.586Z,10.57
2018-12-16T13:06:53.603Z,9.50
2018-12-16T13:09:25.175Z,9.07
2018-12-16T13:11:57.150Z,8.70
2018-12-16T13:14:28.633Z,8.70
2018-12-16T13:17:00.398Z,8.80
2018-12-16T13:19:31.769Z,9.57
2018-12-16T13:22:03.688Z,9.43
2018-12-16T13:24:34.777Z,24.53
2018-12-16T13:27:06.122Z,13.33
2018-12-16T13:29:37.014Z,5.90
2018-12-16T13:32:09.023Z,9.60
2018-12-16T13:34:40.253Z,12.83
2018-12-16T13:37:11.146Z,12.07
2018-12-16T13:39:42.013Z,12.97
2018-12-16T13:42:13.069Z,7.17
2018-12-16T13:44:43.793Z,6.40
2018-12-16T13:47:15.046Z,7.43
2018-12-16T13:49:46.352Z,8.20
2018-12-16T13:52:17.243Z,11.20
2018-12-16T13:54:48.821Z,6.83
2018-12-16T13:57:19.826Z,8.40
2018-12-16T13:59:50.955Z,7.90
2018-12-16T14:02:22.018Z,10.77
2018-12-16T14:04:53.153Z,13.17
2018-12-16T14:07:24.346Z,14.50
2018-12-16T14:09:55.541Z,11.43
2018-12-16T14:12:27.285Z,8.70
2018-12-16T14:14:58.646Z,10.00
2018-12-16T14:17:29.734Z,9.43
2018-12-16T14:20:01.594Z,14.17
2018-12-16T14:22:33.335Z,20.27
2018-12-16T14:25:05.189Z,18.63
2018-12-16T14:27:36.191Z,15.97
2018-12-16T14:30:10.529Z,12.53
2018-12-16T14:32:41.704Z,14.67
2018-12-16T14:35:13.471Z,19.23
2018-12-16T14:37:46.212Z,15.83
2018-12-16T14:40:18.633Z,13.13
2018-12-16T14:42:49.771Z,17.50
2018-12-16T14:45:21.057Z,13.20
2018-12-16T14:47:53.449Z,13.67
2018-12-16T14:50:24.949Z,15.10
2018-12-16T14:52:57.216Z,17.37
2018-12-16T14:55:28.307Z,15.00
2018-12-16T14:57:59.738Z,24.77
2018-12-16T15:00:30.835Z,18.10
2018-12-16T15:03:03.164Z,13.93
2018-12-16T15:05:35.189Z,13.00
2018-12-16T15:08:06.660Z,16.20
2018-12-16T15:10:37.970Z,13.87
2018-12-16T15:13:09.053Z,13.60
2018-12-16T15:15:41.090Z,10.20
2018-12-16T15:18:12.103Z,8.27
2018-12-16T15:20:43.246Z,12.40
2018-12-16T15:23:14.602Z,11.13
2018-12-16T15:25:45.769Z,8.53
2018-12-16T15:28:16.941Z,8.93
2018-12-16T15:30:47.929Z,11.83
2018-12-16T15:33:20.466Z,14.23
2018-12-16T15:35:51.110Z,8.00
2018-12-16T15:38:22.425Z,7.30
2018-12-16T15:40:53.813Z,7.93
2018-12-16T15:43:24.959Z,11.43
2018-12-16T15:45:55.971Z,11.80
2018-12-16T15:48:27.184Z,12.83
2018-12-16T15:50:58.139Z,19.43
2018-12-16T15:53:29.057Z,15.30
2018-12-16T15:56:00.783Z,12.77
2018-12-16T15:58:32.151Z,13.20
2018-12-16T16:01:03.336Z,9.70
2018-12-16T16:03:35.512Z,12.27
2018-12-16T16:06:06.298Z,13.03
2018-12-16T16:08:38.103Z,14.40
2018-12-16T16:11:09.007Z,26.10
2018-12-16T16:13:40.359Z,27.00
2018-12-16T16:16:11.296Z,20.93
2018-12-16T16:18:42.152Z,14.43
2018-12-16T16:21:13.069Z,19.63
2018-12-16T16:23:43.871Z,17.17
2018-12-16T16:26:16.345Z,18.47
2018-12-16T16:28:47.211Z,14.33
2018-12-16T16:31:18.408Z,17.30
2018-12-16T16:33:49.457Z,19.23
2018-12-16T16:36:20.938Z,17.90
2018-12-16T16:38:51.891Z,21.33
2018-12-16T16:41:22.984Z,20.27
2018-12-16T16:43:54.271Z,29.48
2018-12-16T16:46:28.516Z,34.53
2018-12-16T16:48:59.692Z,23.20
2018-12-16T16:51:30.858Z,26.40
2018-12-16T16:54:02.113Z,23.10
2018-12-16T16:56:33.008Z,25.53
2018-12-16T16:59:04.527Z,28.60
2018-12-16T17:01:35.473Z,26.12
2018-12-16T17:04:06.637Z,22.87
2018-12-16T17:06:37.582Z,22.27
2018-12-16T17:09:10.006Z,28.67
2018-12-16T17:11:41.320Z,30.32
2018-12-16T17:14:12.530Z,32.38
2018-12-16T17:16:43.696Z,16.73
2018-12-16T17:19:14.988Z,14.10
2018-12-16T17:21:46.430Z,39.15
2018-12-16T17:24:17.600Z,37.08
2018-12-16T17:26:49.721Z,18.80
2018-12-16T17:29:21.718Z,18.52
2018-12-16T17:31:52.714Z,24.95
2018-12-16T17:34:23.726Z,43.20
2018-12-16T17:36:55.027Z,63.08
2018-12-16T17:39:27.297Z,63.37
2018-12-16T17:41:59.167Z,44.63
2018-12-16T17:44:30.439Z,25.55
2018-12-16T17:47:01.285Z,21.65
2018-12-16T17:49:32.658Z,21.65
2018-12-16T17:52:03.641Z,21.23
2018-12-16T17:54:35.148Z,23.62
2018-12-16T17:57:07.322Z,40.75
2018-12-16T17:59:38.646Z,50.05
2018-12-16T18:02:10.421Z,45.65
2018-12-16T18:04:41.680Z,40.08
2018-12-16T18:07:14.003Z,23.40
2018-12-16T18:09:46.044Z,19.30
2018-12-16T18:12:17.996Z,15.43
2018-12-16T18:14:50.137Z,54.35
2018-12-16T18:17:20.979Z,15.60
2018-12-16T18:19:52.961Z,15.67
2018-12-16T18:22:24.552Z,16.93
2018-12-16T18:24:56.551Z,28.43
2018-12-16T18:27:27.801Z,25.00
2018-12-16T18:30:00.772Z,22.70
2018-12-16T18:32:32.576Z,23.47
2018-12-16T18:35:04.576Z,22.73
2018-12-16T18:37:37.053Z,23.60
2018-12-16T18:40:10.226Z,24.73
2018-12-16T18:42:42.081Z,23.23
2018-12-16T18:45:13.407Z,24.57
2018-12-16T18:47:44.764Z,24.63
2018-12-16T18:50:15.827Z,24.70
2018-12-16T18:52:47.636Z,23.57
2018-12-16T18:55:18.945Z,22.13
2018-12-16T18:57:50.229Z,21.63
2018-12-16T19:00:21.384Z,21.83
2018-12-16T19:02:53.386Z,20.67
2018-12-16T19:05:24.845Z,19.67
2018-12-16T19:07:56.700Z,19.63
2018-12-16T19:10:28.423Z,19.92
2018-12-16T19:12:59.626Z,21.13
2018-12-16T19:15:31.741Z,22.17
2018-12-16T19:18:02.999Z,36.60
2018-12-16T19:20:34.890Z,26.07
2018-12-16T19:23:06.324Z,35.58
2018-12-16T19:25:39.151Z,30.10
2018-12-16T19:28:10.943Z,40.52
2018-12-16T19:30:42.826Z,27.90
2018-12-16T19:33:15.010Z,23.10
2018-12-16T19:35:46.566Z,22.60
2018-12-16T19:38:18.802Z,20.70
2018-12-16T19:40:50.983Z,19.60
2018-12-16T19:43:22.455Z,22.48
2018-12-16T19:45:56.066Z,21.05
2018-12-16T19:48:28.390Z,23.75
2018-12-16T19:51:01.165Z,24.95
2018-12-16T19:53:32.804Z,24.12
2018-12-16T19:56:04.837Z,24.35
2018-12-16T19:58:38.607Z,24.40
2018-12-16T20:01:10.178Z,23.97
2018-12-16T20:03:48.643Z,23.55
2018-12-16T20:06:56.523Z,24.40
2018-12-16T20:09:29.202Z,25.97
2018-12-16T20:12:07.651Z,24.55
2018-12-16T20:14:41.561Z,24.12
2018-12-16T20:17:13.029Z,22.50
2018-12-16T20:19:47.949Z,21.30
2018-12-16T20:22:20.886Z,22.98
2018-12-16T20:24:54.744Z,21.50
2018-12-16T20:27:26.863Z,24.72
2018-12-16T20:29:58.342Z,36.80
2018-12-16T20:32:30.377Z,40.30
2018-12-16T20:35:02.292Z,38.10
2018-12-16T20:37:34.828Z,37.30
2018-12-16T20:40:07.347Z,27.10
2018-12-16T20:42:38.629Z,26.60
2018-12-16T20:45:11.893Z,26.33
2018-12-16T20:47:43.652Z,24.18
2018-12-16T20:50:14.890Z,23.20
2018-12-16T20:52:46.528Z,22.30
2018-12-16T20:55:18.916Z,23.20
2018-12-16T20:57:52.920Z,23.80
2018-12-16T21:00:25.039Z,24.70
2018-12-16T21:02:57.064Z,24.65
2018-12-16T21:05:28.024Z,30.80
2018-12-16T21:07:59.349Z,25.50
2018-12-16T21:10:30.685Z,24.57
2018-12-16T21:13:07.336Z,31.12
2018-12-16T21:15:43.783Z,32.05
2018-12-16T21:18:19.846Z,31.65
2018-12-16T21:20:50.967Z,32.88
2018-12-16T21:23:22.129Z,29.98
2018-12-16T21:25:53.628Z,29.30
2018-12-16T21:28:25.272Z,29.55
2018-12-16T21:30:56.532Z,27.25
2018-12-16T21:33:27.763Z,30.15
2018-12-16T21:35:59.121Z,30.80
2018-12-16T21:38:30.879Z,29.42
2018-12-16T21:41:01.952Z,34.25
2018-12-16T21:43:34.875Z,30.00
2018-12-16T21:46:06.471Z,29.77
2018-12-16T21:48:37.550Z,30.40
2018-12-16T21:51:09.922Z,32.25
2018-12-16T21:53:41.049Z,35.55
2018-12-16T21:56:13.004Z,37.55
2018-12-16T21:58:43.838Z,38.35
2018-12-16T22:01:14.601Z,33.13
2018-12-16T22:03:45.808Z,31.12
2018-12-16T22:06:16.978Z,36.05
2018-12-16T22:08:48.124Z,35.40
2018-12-16T22:11:18.919Z,30.60
2018-12-16T22:13:50.608Z,29.60
2018-12-16T22:16:21.717Z,33.83
2018-12-16T22:18:54.405Z,39.23
2018-12-16T22:21:25.425Z,39.00
2018-12-16T22:23:56.270Z,41.55
2018-12-16T22:26:27.213Z,39.38
2018-12-16T22:28:58.393Z,37.15
2018-12-16T22:31:29.327Z,37.30
2018-12-16T22:34:01.834Z,37.63
2018-12-16T22:36:33.713Z,36.43
2018-12-16T22:39:06.261Z,34.05
2018-12-16T22:41:37.509Z,30.32
2018-12-16T22:44:08.452Z,33.38
2018-12-16T22:46:39.453Z,34.50
2018-12-16T22:49:10.158Z,38.13
2018-12-16T22:51:42.655Z,40.58
2018-12-16T22:54:13.640Z,37.75
2018-12-16T22:56:44.515Z,40.25
2018-12-16T22:59:15.480Z,31.73
2018-12-16T23:01:46.387Z,28.52
2018-12-16T23:04:17.030Z,35.90
2018-12-16T23:06:47.975Z,31.37
2018-12-16T23:09:18.768Z,35.95
2018-12-16T23:11:49.526Z,35.30
2018-12-16T23:14:20.613Z,31.52
2018-12-16T23:16:51.706Z,35.23
2018-12-16T23:19:22.595Z,28.05
2018-12-16T23:21:53.593Z,23.98
2018-12-16T23:24:25.557Z,27.85
2018-12-16T23:26:56.295Z,21.73
2018-12-16T23:29:27.151Z,20.30
2018-12-16T23:31:57.915Z,23.18
2018-12-16T23:34:28.740Z,23.57
2018-12-16T23:36:59.837Z,20.45
2018-12-16T23:39:30.891Z,16.87
2018-12-16T23:42:01.707Z,17.32
2018-12-16T23:44:32.557Z,18.90
2018-12-16T23:47:03.589Z,16.48
2018-12-16T23:49:34.454Z,14.28
2018-12-16T23:52:05.386Z,15.35
2018-12-16T23:54:36.708Z,14.05
2018-12-16T23:57:07.641Z,16.50
2018-12-16T23:59:38.759Z,20.32
